Time;durP1;ratioP1;P1;durP2;ratioP2;P2;SDS_P1;SDS_P2;PMS_P1;PMS_P2;Temp;Humidity;BMP_temperature;BMP_pressure;BME280_temperature;BME280_humidity;BME280_pressure;Samples;Min_cycle;Max_cycle;Signal;HPM_P1;HPM_P2
2022/02/26 00:02:21;;;;;;;24.65;11.73;;;;;;;-3.81;93.56;99695.03;5050778;28;20152;-66
2022/02/26 00:04:47;;;;;;;28.08;14.43;;;;;;;-3.84;93.12;99691.66;5033612;28;20055;-67
2022/02/26 00:07:13;;;;;;;27.17;11.07;;;;;;;-3.88;93.31;99690.91;5033064;28;20407;-67
2022/02/26 00:09:39;;;;;;;26.75;11.60;;;;;;;-3.85;93.34;99696.09;5068555;28;20049;-64
2022/02/26 00:12:05;;;;;;;29.45;13.95;;;;;;;-3.85;93.42;99701.38;5033649;28;20040;-65
2022/02/26 00:14:31;;;;;;;26.23;11.98;;;;;;;-3.83;93.55;99694.25;5032368;28;20428;-66
2022/02/26 00:16:57;;;;;;;27.00;11.27;;;;;;;-3.81;93.90;99692.41;5015968;28;20048;-67
2022/02/26 00:19:23;;;;;;;27.52;13.73;;;;;;;-3.79;93.99;99697.63;5016141;28;20492;-67
2022/02/26 00:21:48;;;;;;;26.25;12.18;;;;;;;-3.77;93.90;99699.28;5032455;28;20139;-66
2022/02/26 00:24:14;;;;;;;29.48;13.88;;;;;;;-3.76;93.32;99706.31;5017402;28;20505;-65
2022/02/26 00:26:40;;;;;;;24.15;11.25;;;;;;;-3.71;93.55;99704.31;5031894;28;20052;-67
2022/02/26 00:29:06;;;;;;;24.85;11.77;;;;;;;-3.67;93.11;99711.22;5065826;28;20531;-65
2022/02/26 00:31:32;;;;;;;24.27;11.30;;;;;;;-3.67;92.99;99700.63;4999514;28;20110;-66
2022/02/26 00:33:58;;;;;;;28.52;11.95;;;;;;;-3.64;92.63;99705.81;5031605;28;20045;-66
2022/02/26 00:36:24;;;;;;;27.65;13.25;;;;;;;-3.64;92.95;99700.53;5048494;28;20452;-66
2022/02/26 00:38:50;;;;;;;28.45;11.25;;;;;;;-3.61;92.57;99720.69;5048443;28;20089;-66
2022/02/26 00:41:16;;;;;;;29.02;13.80;;;;;;;-3.68;93.01;99698.94;5032040;28;20037;-66
2022/02/26 00:43:42;;;;;;;26.48;13.32;;;;;;;-3.68;92.94;99704.22;5031895;28;20040;-67
2022/02/26 00:46:07;;;;;;;25.85;13.77;;;;;;;-3.65;93.00;99704.09;5032286;28;20449;-66
2022/02/26 00:51:23;;;;;;;22.75;9.57;;;;;;;-3.58;92.70;99709.09;5035923;28;20091;-65
2022/02/26 00:53:49;;;;;;;27.58;10.38;;;;;;;-3.55;92.64;99693.13;5051999;28;20073;-66
2022/02/26 00:56:16;;;;;;;25.05;10.88;;;;;;;-3.53;92.28;99696.59;5052445;28;20044;-66
2022/02/26 00:58:42;;;;;;;25.33;12.60;;;;;;;-3.50;92.54;99699.13;5019501;28;20493;-67
2022/02/26 01:01:08;;;;;;;26.02;12.45;;;;;;;-3.55;92.38;99690.50;5035879;28;20081;-66
2022/02/26 01:03:35;;;;;;;27.58;12.40;;;;;;;-3.51;92.65;99694.72;5035990;28;20072;-66
2022/02/26 01:06:01;;;;;;;24.65;10.90;;;;;;;-3.51;92.36;99697.38;5019143;28;20048;-66
2022/02/26 01:08:26;;;;;;;26.35;13.27;;;;;;;-3.51;92.70;99694.72;5052389;28;20048;-66
2022/02/26 01:10:52;;;;;;;26.67;12.35;;;;;;;-3.47;92.48;99699.84;5002897;28;20044;-65
2022/02/26 01:13:19;;;;;;;27.70;12.15;;;;;;;-3.47;92.14;99691.06;5036427;28;20044;-65
2022/02/26 01:15:45;;;;;;;25.83;11.38;;;;;;;-3.47;92.33;99693.72;5052334;28;20135;-65
2022/02/26 01:18:11;;;;;;;28.50;11.60;;;;;;;-3.42;92.51;99699.66;5019202;28;20041;-64
2022/02/26 01:20:36;;;;;;;27.60;12.82;;;;;;;-3.41;92.09;99706.66;5035920;28;20209;-65
2022/02/26 01:23:02;;;;;;;26.42;13.25;;;;;;;-3.53;92.67;99678.09;5035864;28;20135;-66
2022/02/26 01:25:28;;;;;;;26.00;11.30;;;;;;;-3.37;92.09;99707.41;5035878;28;20052;-67
2022/02/26 01:27:54;;;;;;;26.73;10.93;;;;;;;-3.36;92.64;99704.72;5037714;28;20169;-66
2022/02/26 01:30:20;;;;;;;25.33;11.15;;;;;;;-3.37;92.63;99712.69;5054135;28;20435;-65
2022/02/26 01:32:46;;;;;;;24.95;12.05;;;;;;;-3.34;92.10;99708.13;5036116;28;20136;-66
2022/02/26 01:35:12;;;;;;;24.83;10.23;;;;;;;-3.26;92.30;99711.31;5052120;28;21529;-65
2022/02/26 01:37:38;;;;;;;26.40;11.25;;;;;;;-3.26;92.18;99711.31;5035435;28;20091;-66
2022/02/26 01:40:05;;;;;;;29.77;13.27;;;;;;;-3.28;91.87;99712.31;5035140;28;20484;-65
2022/02/26 01:42:31;;;;;;;28.52;12.38;;;;;;;-3.29;92.31;99708.81;5051245;28;20063;-65
2022/02/26 01:44:57;;;;;;;26.90;10.23;;;;;;;-3.29;92.52;99711.47;5035104;28;20399;-66
2022/02/26 01:47:23;;;;;;;24.65;11.95;;;;;;;-3.25;92.09;99712.19;5052213;28;20047;-67
2022/02/26 01:49:49;;;;;;;24.45;11.10;;;;;;;-3.29;91.92;99711.47;5034445;28;20045;-67
2022/02/26 01:52:17;;;;;;;30.17;10.20;;;;;;;-3.21;92.43;99714.66;5018249;28;20048;-68
2022/02/26 01:54:47;;;;;;;27.33;13.20;;;;;;;-3.23;92.26;99705.06;5034416;28;20059;-67
2022/02/26 01:57:13;;;;;;;26.98;11.73;;;;;;;-3.22;91.96;99707.66;5034097;28;20060;-66
2022/02/26 01:59:39;;;;;;;24.45;10.38;;;;;;;-3.21;92.19;99696.16;5051082;28;20048;-66
2022/02/26 02:02:06;;;;;;;30.60;12.43;;;;;;;-3.20;92.52;99710.22;5034598;28;20048;-66
2022/02/26 02:04:32;;;;;;;26.27;11.65;;;;;;;-3.23;92.49;99727.06;5001677;28;20051;-65
2022/02/26 02:06:58;;;;;;;25.38;11.07;;;;;;;-3.25;92.41;99713.06;5050997;28;20053;-66
2022/02/26 02:09:27;;;;;;;26.23;10.38;;;;;;;-3.18;92.61;99716.28;5034676;28;20113;-66
2022/02/26 02:11:53;;;;;;;26.23;11.85;;;;;;;-3.20;92.84;99724.28;5050884;28;20139;-65
2022/02/26 02:14:19;;;;;;;28.02;10.38;;;;;;;-3.24;92.40;99714.78;5034324;28;20524;-66
2022/02/26 02:16:45;;;;;;;27.02;11.85;;;;;;;-3.22;92.76;99723.50;5051097;28;20046;-66
2022/02/26 02:19:11;;;;;;;27.70;11.32;;;;;;;-3.20;92.59;99728.72;5050457;28;20510;-66
2022/02/26 02:21:38;;;;;;;31.20;12.02;;;;;;;-3.24;93.23;99725.34;5034173;28;20420;-65
2022/02/26 02:24:06;;;;;;;25.92;10.75;;;;;;;-3.26;92.82;99716.59;5002047;28;20067;-66
2022/02/26 02:26:36;;;;;;;24.85;11.00;;;;;;;-3.30;93.28;99722.94;5017454;28;20037;-68
2022/02/26 02:29:03;;;;;;;25.67;11.90;;;;;;;-3.25;93.40;99731.56;5051192;28;20060;-65
2022/02/26 02:31:30;;;;;;;25.38;11.25;;;;;;;-3.23;93.47;99732.34;5034556;28;20103;-67
2022/02/26 02:33:56;;;;;;;25.17;10.65;;;;;;;-3.19;92.97;99739.22;5034156;28;20059;-66
2022/02/26 02:36:22;;;;;;;27.52;12.30;;;;;;;-3.19;92.97;99733.94;5034083;28;20044;-66
2022/02/26 02:38:48;;;;;;;25.98;10.02;;;;;;;-3.18;92.44;99725.09;5017645;28;20059;-65
2022/02/26 02:41:15;;;;;;;25.85;11.82;;;;;;;-3.15;92.51;99727.59;5050513;28;20036;-66
2022/02/26 02:43:41;;;;;;;26.27;10.82;;;;;;;-3.11;92.61;99730.13;5034753;28;20095;-66
2022/02/26 02:46:07;;;;;;;23.25;9.90;;;;;;;-3.17;93.03;99721.53;5018230;28;20409;-67
2022/02/26 02:48:33;;;;;;;24.95;11.13;;;;;;;-3.07;92.54;99727.31;5050830;28;20052;-66
2022/02/26 02:50:59;;;;;;;24.58;9.73;;;;;;;-3.05;92.45;99724.56;5033559;28;20125;-65
2022/02/26 02:53:25;;;;;;;26.40;10.85;;;;;;;-3.12;92.63;99723.13;5033882;28;20101;-66
2022/02/26 02:55:52;;;;;;;29.45;11.55;;;;;;;-3.08;92.40;99730.00;5033916;28;20047;-67
2022/02/26 02:58:22;;;;;;;27.02;11.45;;;;;;;-3.04;92.50;99724.50;5049991;28;20049;-66
2022/02/26 03:00:48;;;;;;;32.38;13.10;;;;;;;-3.11;92.24;99725.69;5051598;28;20041;-66
2022/02/26 03:03:14;;;;;;;24.52;11.48;;;;;;;-3.07;92.76;99726.41;5016956;28;20139;-66
2022/02/26 03:05:40;;;;;;;24.30;11.20;;;;;;;-3.08;92.75;99732.63;5017415;28;20132;-66
2022/02/26 03:08:07;;;;;;;24.75;11.30;;;;;;;-3.09;92.83;99731.78;5033413;28;20048;-66
2022/02/26 03:10:33;;;;;;;22.58;9.73;;;;;;;-3.05;92.65;99740.44;5016493;28;20048;-67
2022/02/26 03:12:59;;;;;;;24.25;10.55;;;;;;;-3.05;92.55;99732.50;5033158;28;20524;-65
2022/02/26 03:15:25;;;;;;;24.27;10.98;;;;;;;-3.00;92.14;99734.06;5032838;28;20043;-66
2022/02/26 03:17:51;;;;;;;25.00;10.70;;;;;;;-3.08;92.57;99725.56;5033411;28;20048;-65
2022/02/26 03:20:17;;;;;;;29.80;12.18;;;;;;;-3.06;92.42;99731.66;5032769;28;20045;-66
2022/02/26 03:22:43;;;;;;;25.58;11.35;;;;;;;-3.04;92.44;99742.16;5033273;28;20076;-67
2022/02/26 03:25:09;;;;;;;26.50;11.18;;;;;;;-3.01;92.63;99758.75;5016604;28;20079;-66
2022/02/26 03:27:36;;;;;;;27.67;10.98;;;;;;;-2.98;92.51;99749.84;5032897;28;20522;-66
2022/02/26 03:30:03;;;;;;;28.38;11.02;;;;;;;-2.99;92.49;99756.06;5000328;28;20052;-67
2022/02/26 03:32:29;;;;;;;25.55;11.20;;;;;;;-2.99;92.83;99756.06;5048987;28;20052;-67
2022/02/26 03:34:55;;;;;;;25.83;9.52;;;;;;;-2.98;92.34;99758.63;5032589;28;20071;-67
2022/02/26 03:37:21;;;;;;;26.00;10.05;;;;;;;-2.96;92.66;99761.25;5032577;28;20044;-67
2022/02/26 03:39:46;;;;;;;26.65;11.13;;;;;;;-3.02;92.41;99762.34;5048953;28;20048;-67
2022/02/26 03:42:12;;;;;;;27.67;11.23;;;;;;;-3.02;92.60;99767.63;5049263;28;20488;-67
2022/02/26 03:44:38;;;;;;;27.45;13.05;;;;;;;-3.02;92.69;99772.06;5049244;28;20053;-66
2022/02/26 03:47:05;;;;;;;25.95;12.23;;;;;;;-3.02;93.19;99777.34;5032366;28;20071;-67
2022/02/26 03:49:31;;;;;;;24.58;11.70;;;;;;;-3.04;92.97;99779.19;5049116;28;20048;-66
2022/02/26 03:51:58;;;;;;;28.95;11.00;;;;;;;-3.08;93.36;99783.72;5032293;28;20033;-66
2022/02/26 03:54:24;;;;;;;31.95;11.45;;;;;;;-3.18;93.83;99766.50;5032482;28;20476;-67
2022/02/26 03:56:51;;;;;;;28.45;11.35;;;;;;;-3.06;93.64;99786.34;5000010;28;20132;-68
2022/02/26 03:59:17;;;;;;;27.23;12.85;;;;;;;-3.13;93.49;99782.22;5033756;28;20041;-67
2022/02/26 04:01:43;;;;;;;24.20;10.55;;;;;;;-3.15;93.67;99783.13;5050406;28;20171;-65
2022/02/26 04:04:09;;;;;;;28.67;11.63;;;;;;;-3.11;93.52;99798.84;5033386;28;20082;-67
2022/02/26 04:06:35;;;;;;;25.73;10.98;;;;;;;-3.15;94.25;99809.56;5033435;28;20056;-65
2022/02/26 04:09:02;;;;;;;33.95;11.57;;;;;;;-3.11;94.16;99817.38;5033635;28;20525;-68
2022/02/26 04:11:28;;;;;;;30.67;12.63;;;;;;;-3.12;93.96;99823.59;5066176;28;20194;-66
2022/02/26 04:13:55;;;;;;;22.15;10.13;;;;;;;-3.10;94.78;99816.47;5032461;28;20539;-67
2022/02/26 04:16:21;;;;;;;26.98;10.95;;;;;;;-3.07;94.11;99811.03;5015903;28;20037;-67
2022/02/26 04:18:47;;;;;;;24.15;9.85;;;;;;;-3.05;93.87;99803.91;5015424;28;20063;-68
2022/02/26 04:21:13;;;;;;;26.30;9.70;;;;;;;-3.04;94.02;99808.25;5015919;28;20416;-67
2022/02/26 04:23:39;;;;;;;26.80;11.30;;;;;;;-2.94;93.36;99814.91;5015522;28;20045;-66
2022/02/26 04:26:05;;;;;;;26.98;10.77;;;;;;;-2.94;93.23;99822.84;5065255;28;20428;-67
2022/02/26 04:28:31;;;;;;;26.48;9.60;;;;;;;-2.93;93.60;99820.13;5032277;28;20045;-67
2022/02/26 04:30:58;;;;;;;24.85;9.85;;;;;;;-2.98;93.16;99805.38;5031713;28;20135;-67
2022/02/26 04:33:24;;;;;;;24.00;10.27;;;;;;;-2.89;93.41;99827.94;5048493;28;20052;-67
2022/02/26 04:35:50;;;;;;;24.02;9.85;;;;;;;-2.91;93.80;99822.72;4998722;28;20044;-67
2022/02/26 04:38:16;;;;;;;27.40;11.68;;;;;;;-2.92;93.56;99821.00;5015449;28;20047;-68
2022/02/26 04:40:41;;;;;;;23.58;10.65;;;;;;;-2.99;94.11;99830.13;5031772;28;20113;-67
2022/02/26 04:43:07;;;;;;;27.73;11.55;;;;;;;-3.06;94.61;99836.56;5031947;28;20369;-66
2022/02/26 04:45:33;;;;;;;26.13;10.30;;;;;;;-3.00;95.17;99833.66;5033326;28;20052;-66
2022/02/26 04:47:59;;;;;;;28.35;10.25;;;;;;;-3.04;94.45;99829.41;5000069;28;20064;-66
2022/02/26 04:50:25;;;;;;;23.95;8.73;;;;;;;-3.02;94.52;99840.81;5032869;28;20393;-66
2022/02/26 04:52:51;;;;;;;24.88;10.50;;;;;;;-3.02;94.49;99838.16;5049639;28;20140;-66
2022/02/26 04:55:16;;;;;;;24.85;11.45;;;;;;;-3.03;94.73;99839.09;5032224;28;20057;-67
2022/02/26 04:57:44;;;;;;;24.95;9.82;;;;;;;-3.09;95.17;99834.03;5032421;28;20041;-66
2022/02/26 05:00:11;;;;;;;27.05;10.45;;;;;;;-3.06;95.62;99852.44;5015916;28;20071;-67
2022/02/26 05:02:37;;;;;;;26.45;10.82;;;;;;;-3.09;95.67;99839.34;5048992;28;20492;-66
2022/02/26 05:05:04;;;;;;;29.60;11.70;;;;;;;-3.03;95.65;99849.69;5016228;28;20163;-67
2022/02/26 05:07:30;;;;;;;25.55;10.95;;;;;;;-3.11;95.93;99857.03;5015682;28;20049;-66
2022/02/26 05:09:56;;;;;;;26.88;11.27;;;;;;;-3.29;96.20;99833.06;5032549;28;20075;-66
2022/02/26 05:12:22;;;;;;;29.88;11.85;;;;;;;-3.14;96.12;99858.03;5032822;28;20068;-67
2022/02/26 05:14:48;;;;;;;28.63;10.80;;;;;;;-3.11;96.23;99854.38;5000062;28;20120;-67
2022/02/26 05:17:14;;;;;;;26.73;10.68;;;;;;;-3.05;96.03;99864.72;5032369;28;20583;-67
2022/02/26 05:19:40;;;;;;;22.90;10.20;;;;;;;-2.98;95.88;99871.50;5017222;28;20053;-67
2022/02/26 05:22:06;;;;;;;25.65;8.82;;;;;;;-2.93;95.50;99874.81;5016681;28;20045;-67
2022/02/26 05:24:32;;;;;;;21.95;9.20;;;;;;;-2.94;94.88;99865.16;5032224;28;20041;-67
2022/02/26 05:26:58;;;;;;;21.95;8.48;;;;;;;-2.79;94.76;99874.25;5031950;28;20560;-66
2022/02/26 05:29:24;;;;;;;24.75;9.30;;;;;;;-2.64;94.20;99872.78;5049583;28;20497;-66
2022/02/26 05:31:50;;;;;;;23.55;10.30;;;;;;;-1.88;91.21;99872.16;5015846;28;20117;-67
2022/02/26 05:34:17;;;;;;;22.92;9.25;;;;;;;-1.20;86.85;99871.78;5038270;28;20492;-66
2022/02/26 05:36:43;;;;;;;20.02;8.45;;;;;;;-0.75;82.42;99874.88;5072134;28;20032;-67
2022/02/26 05:39:09;;;;;;;19.08;8.13;;;;;;;-1.16;83.26;99876.00;5036491;28;20059;-66
2022/02/26 05:41:36;;;;;;;23.00;9.68;;;;;;;-1.46;84.79;99876.50;5019880;28;20081;-67
2022/02/26 05:44:02;;;;;;;25.20;9.13;;;;;;;-1.52;86.54;99880.28;5020741;28;20117;-67
2022/02/26 05:46:28;;;;;;;22.83;8.88;;;;;;;-1.50;86.41;99890.78;5036670;28;20094;-66
2022/02/26 05:48:53;;;;;;;25.45;9.07;;;;;;;-1.49;86.21;99887.22;5035942;28;20401;-66
2022/02/26 05:51:19;;;;;;;24.60;9.73;;;;;;;-1.45;85.70;99899.41;5036046;28;20056;-67
2022/02/26 05:53:45;;;;;;;24.15;10.80;;;;;;;-1.46;85.46;99887.97;5020121;28;20049;-67
2022/02/26 05:56:12;;;;;;;25.85;8.27;;;;;;;-1.14;84.46;99898.00;5018489;28;20453;-66
2022/02/26 05:58:37;;;;;;;21.83;8.90;;;;;;;-1.11;83.86;99892.56;5002730;28;20488;-66
2022/02/26 06:01:03;;;;;;;25.83;9.52;;;;;;;-1.28;84.29;99912.78;5035817;28;20080;-67
2022/02/26 06:03:29;;;;;;;22.38;10.25;;;;;;;-1.38;84.92;99922.06;5003491;28;20076;-66
2022/02/26 06:05:55;;;;;;;23.15;10.20;;;;;;;-1.57;85.88;99902.59;5019536;28;20048;-67
2022/02/26 06:08:21;;;;;;;23.40;9.63;;;;;;;-1.54;86.05;99915.72;5020872;28;20574;-67
2022/02/26 06:10:46;;;;;;;27.95;10.95;;;;;;;-1.54;86.14;99923.69;5002541;28;20144;-67
2022/02/26 06:13:12;;;;;;;26.30;9.50;;;;;;;-1.54;86.29;99927.19;5034922;28;20059;-66
2022/02/26 06:15:38;;;;;;;22.58;9.38;;;;;;;-1.50;86.34;99930.56;5036769;28;20045;-66
2022/02/26 06:18:04;;;;;;;20.52;9.02;;;;;;;-1.49;86.76;99935.81;5022291;28;20083;-67
2022/02/26 06:20:30;;;;;;;23.25;9.05;;;;;;;-1.44;85.87;99942.69;5053556;28;20523;-66
2022/02/26 06:22:56;;;;;;;23.73;8.68;;;;;;;-1.47;85.82;99944.53;5035936;28;20069;-67
2022/02/26 06:25:22;;;;;;;24.88;9.93;;;;;;;-1.50;86.07;99938.50;5019736;28;20558;-70
2022/02/26 06:27:47;;;;;;;22.85;9.15;;;;;;;-1.40;86.25;99945.13;5020150;28;20618;-68
2022/02/26 06:30:15;;;;;;;24.65;9.80;;;;;;;-1.39;85.62;99957.47;5036760;28;20080;-67
2022/02/26 06:32:41;;;;;;;25.08;9.10;;;;;;;-1.39;85.98;99957.47;5069836;28;20451;-67
2022/02/26 06:35:09;;;;;;;24.20;10.15;;;;;;;-1.40;85.82;99952.22;5035532;28;20045;-67
2022/02/26 06:37:35;;;;;;;25.45;10.15;;;;;;;-1.51;85.92;99936.78;5034599;28;20040;-66
2022/02/26 06:40:01;;;;;;;23.20;8.95;;;;;;;-1.46;85.74;99945.44;5034758;28;20123;-66
2022/02/26 06:42:27;;;;;;;23.83;9.32;;;;;;;-1.32;86.43;99948.28;5051854;28;20097;-67
2022/02/26 06:44:53;;;;;;;21.33;9.20;;;;;;;-1.26;85.60;99963.09;5017543;28;20103;-67
2022/02/26 06:47:19;;;;;;;25.08;9.82;;;;;;;-1.43;85.88;99950.56;5051415;28;20060;-66
2022/02/26 06:49:45;;;;;;;24.92;9.10;;;;;;;-1.35;86.04;99980.28;5033821;28;20052;-67
2022/02/26 06:52:11;;;;;;;22.33;9.85;;;;;;;-1.24;86.50;99972.69;5050411;28;20049;-67
2022/02/26 06:54:37;;;;;;;22.48;9.55;;;;;;;-1.27;85.95;99956.91;5017215;28;20064;-68
2022/02/26 06:57:04;;;;;;;22.30;10.52;;;;;;;-1.11;85.79;99978.28;5033501;28;20048;-67
2022/02/26 06:59:29;;;;;;;22.80;8.98;;;;;;;-0.95;85.74;99978.47;5034250;28;20048;-67
2022/02/26 07:01:55;;;;;;;22.77;9.60;;;;;;;-0.89;85.20;99972.88;5035179;28;20033;-67
2022/02/26 07:04:22;;;;;;;20.70;9.65;;;;;;;-0.92;85.23;99988.94;5034776;28;20554;-68
2022/02/26 07:06:48;;;;;;;23.25;9.43;;;;;;;-0.87;85.47;99976.31;5034694;28;20133;-67
2022/02/26 07:09:16;;;;;;;22.83;10.23;;;;;;;-0.84;85.01;99980.59;5034700;28;20083;-67
2022/02/26 07:11:45;;;;;;;21.95;10.65;;;;;;;-0.92;85.83;99967.69;5031293;28;20486;-65
2022/02/26 07:14:12;;;;;;;21.90;9.55;;;;;;;-0.80;85.28;99988.38;5022857;28;20480;-67
2022/02/26 07:16:38;;;;;;;25.45;9.82;;;;;;;-1.02;84.81;99935.44;5019350;28;20094;-69
2022/02/26 07:19:05;;;;;;;24.17;8.70;;;;;;;-0.69;84.75;99979.06;5022295;28;20041;-69
2022/02/26 07:21:32;;;;;;;22.08;9.80;;;;;;;-0.48;85.02;99993.94;5018906;28;20080;-68
2022/02/26 07:23:58;;;;;;;19.85;8.30;;;;;;;-0.48;84.13;99999.25;5021115;28;20041;-68
2022/02/26 07:26:28;;;;;;;20.13;8.95;;;;;;;-0.59;84.73;99998.91;5016855;28;20045;-73
2022/02/26 07:28:55;;;;;;;19.95;8.77;;;;;;;-0.69;85.20;99997.63;5041726;28;20048;-74
2022/02/26 07:31:21;;;;;;;27.75;9.77;;;;;;;-0.65;85.01;100001.88;5023757;28;20049;-68
2022/02/26 07:33:47;;;;;;;25.95;9.70;;;;;;;-0.65;84.64;100012.50;5037811;28;20093;-67
2022/02/26 07:36:14;;;;;;;22.98;9.80;;;;;;;-0.64;85.00;100012.41;5049496;28;20131;-67
2022/02/26 07:38:40;;;;;;;18.67;8.27;;;;;;;-0.64;84.81;100014.19;5019131;28;20041;-67
2022/02/26 07:41:07;;;;;;;22.50;9.75;;;;;;;-0.72;85.47;100006.59;5025623;28;20037;-67
2022/02/26 07:43:34;;;;;;;21.00;8.90;;;;;;;-0.64;84.60;100008.91;5026857;28;20070;-68
2022/02/26 07:46:00;;;;;;;20.85;9.35;;;;;;;-0.59;84.99;100022.81;5042144;28;20040;-67
2022/02/26 07:48:26;;;;;;;26.92;8.77;;;;;;;-0.55;85.17;100019.97;5027969;28;20409;-68
2022/02/26 07:50:52;;;;;;;21.60;9.68;;;;;;;-0.47;84.90;100027.56;5021552;28;20052;-66
2022/02/26 07:53:18;;;;;;;19.52;7.97;;;;;;;-0.40;85.03;100034.31;5043964;28;20040;-67
2022/02/26 07:55:44;;;;;;;20.95;8.60;;;;;;;-0.33;84.33;100029.53;5031218;28;20037;-68
2022/02/26 07:58:10;;;;;;;22.88;8.98;;;;;;;-0.33;83.46;100029.53;5010652;28;20064;-68
2022/02/26 08:00:37;;;;;;;24.15;8.77;;;;;;;-0.45;84.33;100012.41;5051573;28;20050;-68
2022/02/26 08:03:04;;;;;;;21.73;9.27;;;;;;;-0.40;83.45;100031.66;5048916;28;20056;-68
2022/02/26 08:05:30;;;;;;;21.15;9.88;;;;;;;-0.30;84.11;100035.56;5039063;28;20055;-67
2022/02/26 08:07:56;;;;;;;19.77;9.40;;;;;;;-0.33;83.37;100033.06;5033264;28;20052;-67
2022/02/26 08:10:23;;;;;;;20.65;9.48;;;;;;;-0.21;82.98;100046.72;5041758;28;20083;-68
2022/02/26 08:12:49;;;;;;;23.58;10.50;;;;;;;-0.17;83.39;100049.13;5004401;28;20043;-67
2022/02/26 08:15:15;;;;;;;22.95;9.45;;;;;;;-0.21;83.57;100033.44;5032034;28;20120;-68
2022/02/26 08:17:44;;;;;;;22.27;8.75;;;;;;;-0.19;83.88;100044.81;5028674;28;20056;-67
2022/02/26 08:20:10;;;;;;;23.88;9.38;;;;;;;-0.23;83.19;100029.97;5050699;28;20102;-67
2022/02/26 08:22:36;;;;;;;21.60;9.40;;;;;;;-0.09;83.51;100048.75;5023149;28;20087;-68
2022/02/26 08:25:03;;;;;;;21.00;9.30;;;;;;;-0.17;83.81;100035.00;5035948;28;20053;-67
2022/02/26 08:27:31;;;;;;;18.23;8.95;;;;;;;-0.10;83.63;100063.00;5053592;28;20120;-67
2022/02/26 08:29:58;;;;;;;21.02;8.60;;;;;;;-0.10;82.76;100049.72;5029289;28;20049;-67
2022/02/26 08:32:27;;;;;;;22.00;9.18;;;;;;;0.03;83.11;100058.78;5039996;28;20140;-68
2022/02/26 08:34:54;;;;;;;21.58;9.13;;;;;;;0.11;82.44;100056.63;5029851;28;20048;-68
2022/02/26 08:37:20;;;;;;;20.35;8.30;;;;;;;0.14;82.53;100056.47;5015978;28;20082;-67
2022/02/26 08:39:46;;;;;;;22.95;8.63;;;;;;;0.13;82.30;100052.09;5048317;28;20068;-67
2022/02/26 08:42:12;;;;;;;23.73;10.27;;;;;;;0.12;82.40;100058.34;5035187;28;20044;-68
2022/02/26 08:44:38;;;;;;;21.88;9.65;;;;;;;0.19;82.37;100065.09;5055947;28;20486;-68
2022/02/26 08:47:05;;;;;;;17.83;8.63;;;;;;;0.21;81.76;100055.22;5046039;28;20047;-65
2022/02/26 08:49:31;;;;;;;22.02;8.65;;;;;;;0.27;81.85;100054.06;5025148;28;20045;-64
2022/02/26 08:51:57;;;;;;;19.30;9.02;;;;;;;0.33;81.56;100056.44;5011118;28;20129;-69
2022/02/26 08:54:23;;;;;;;23.67;9.73;;;;;;;0.29;81.42;100053.97;5057143;28;20051;-68
2022/02/26 08:56:49;;;;;;;20.35;9.50;;;;;;;0.42;81.02;100071.06;5026477;28;20053;-68
2022/02/26 08:59:15;;;;;;;20.42;8.27;;;;;;;0.44;80.54;100070.06;5018109;28;20136;-69
2022/02/26 09:01:41;;;;;;;25.13;9.05;;;;;;;0.49;80.91;100051.19;5041139;28;20360;-68
2022/02/26 09:04:07;;;;;;;22.85;9.57;;;;;;;0.43;81.15;100059.47;5040331;28;20047;-69
2022/02/26 09:06:34;;;;;;;23.35;8.93;;;;;;;0.51;80.65;100059.09;5023896;28;20045;-68
2022/02/26 09:09:00;;;;;;;17.88;7.32;;;;;;;0.50;80.80;100066.22;5021151;28;20049;-69
2022/02/26 09:11:27;;;;;;;24.25;8.45;;;;;;;0.57;80.43;100058.78;5037708;28;20041;-68
2022/02/26 09:13:53;;;;;;;19.88;8.10;;;;;;;0.74;79.82;100060.59;5028816;28;20591;-68
2022/02/26 09:16:19;;;;;;;18.27;8.45;;;;;;;0.76;80.23;100064.03;5011006;28;20139;-68
2022/02/26 09:18:46;;;;;;;25.23;8.50;;;;;;;0.67;79.87;100034.28;5034536;28;20059;-68
2022/02/26 09:21:13;;;;;;;31.27;12.05;;;;;;;0.88;79.13;100060.75;5060108;28;20056;-69
2022/02/26 09:23:39;;;;;;;25.67;9.32;;;;;;;0.94;79.68;100068.38;5041776;28;20059;-68
2022/02/26 09:26:06;;;;;;;20.35;8.50;;;;;;;0.87;79.48;100057.19;5026957;28;20151;-69
2022/02/26 09:28:33;;;;;;;22.48;8.65;;;;;;;0.81;79.12;100051.34;5002158;28;20048;-68
2022/02/26 09:31:01;;;;;;;18.75;7.55;;;;;;;0.85;79.24;100060.91;5040564;28;20410;-72
2022/02/26 09:33:30;;;;;;;21.75;8.60;;;;;;;0.86;79.12;100049.31;5052875;28;20130;-68
2022/02/26 09:36:00;;;;;;;18.23;7.90;;;;;;;0.84;78.81;100051.16;5043941;28;20135;-69
2022/02/26 09:38:27;;;;;;;;;;;;;;;0.85;79.43;100074.19;5040795;28;20044;-70
2022/02/26 09:40:54;;;;;;;22.77;8.38;;;;;;;0.86;79.32;100081.25;5062684;28;19943;-69
2022/02/26 09:43:24;;;;;;;19.92;8.25;;;;;;;0.84;79.54;100076.00;5053612;28;20044;-69
2022/02/26 09:45:51;;;;;;;18.30;7.63;;;;;;;0.93;79.36;100083.50;5027135;28;20049;-69
2022/02/26 09:48:17;;;;;;;20.35;9.23;;;;;;;0.94;79.46;100082.56;5053745;28;20036;-69
2022/02/26 09:50:44;;;;;;;17.73;8.48;;;;;;;1.02;78.71;100092.78;5052827;28;20135;-68
2022/02/26 09:53:11;;;;;;;17.15;8.27;;;;;;;1.17;78.35;100086.69;5058870;28;20495;-69
2022/02/26 09:55:37;;;;;;;19.90;8.73;;;;;;;1.14;78.22;100080.66;5048985;28;20045;-68
2022/02/26 09:58:04;;;;;;;18.20;8.85;;;;;;;1.13;77.76;100084.25;5050847;28;20878;-68
2022/02/26 10:00:30;;;;;;;20.35;7.72;;;;;;;1.18;77.85;100080.41;5028233;28;20095;-68
2022/02/26 10:03:00;;;;;;;18.05;7.30;;;;;;;1.23;77.91;100073.97;5023618;28;20041;-69
2022/02/26 10:05:28;;;;;;;16.10;7.00;;;;;;;1.39;77.73;100088.19;5036940;28;20077;-69
2022/02/26 10:07:54;;;;;;;16.80;6.95;;;;;;;1.08;77.15;100033.06;5004938;28;20465;-68
2022/02/26 10:10:25;;;;;;;17.88;7.75;;;;;;;1.29;76.87;100058.53;5018854;28;20077;-69
2022/02/26 10:12:59;;;;;;;20.77;6.03;;;;;;;1.44;76.68;100072.84;5046314;28;20349;-68
2022/02/26 10:15:28;;;;;;;17.95;6.90;;;;;;;1.62;76.77;100079.81;5061983;28;20050;-69
2022/02/26 10:17:59;;;;;;;24.70;7.22;;;;;;;1.69;76.63;100085.69;5033152;28;20045;-71
2022/02/26 10:20:27;;;;;;;19.38;7.32;;;;;;;1.59;75.85;100087.13;5062234;28;20106;-71
2022/02/26 10:22:54;;;;;;;18.40;6.82;;;;;;;1.42;75.89;100058.72;5050678;28;20029;-70
2022/02/26 10:25:22;;;;;;;17.95;6.53;;;;;;;1.61;76.59;100086.09;5055517;28;20049;-72
2022/02/26 10:28:03;;;;;;;16.90;6.15;;;;;;;1.48;75.68;100077.06;5029867;28;20048;-70
2022/02/26 10:30:35;;;;;;;15.77;5.53;;;;;;;1.72;75.83;100097.97;5038856;28;20045;-72
2022/02/26 10:33:10;;;;;;;12.85;5.38;;;;;;;1.61;74.41;100080.78;5019211;28;20091;-69
2022/02/26 10:35:42;;;;;;;15.35;6.03;;;;;;;1.73;74.27;100107.69;5032869;28;20114;-70
2022/02/26 10:38:31;;;;;;;14.65;5.40;;;;;;;1.61;74.55;100096.75;5039753;28;20090;-70
2022/02/26 10:41:09;;;;;;;20.17;5.50;;;;;;;1.61;74.84;100107.44;5020208;28;20045;-69
2022/02/26 10:43:46;;;;;;;17.98;6.25;;;;;;;1.67;74.68;100101.72;5046222;28;20041;-74
2022/02/26 10:46:21;;;;;;;14.90;6.03;;;;;;;1.63;74.58;100105.50;5019036;28;20049;-72
2022/02/26 10:48:49;;;;;;;14.50;4.72;;;;;;;1.62;74.05;100098.47;5037178;28;20053;-71
2022/02/26 10:51:20;;;;;;;13.35;4.32;;;;;;;1.85;74.29;100104.34;5055126;28;20053;-72
2022/02/26 10:53:46;;;;;;;;;;;;;;;1.86;73.70;100106.91;5036851;28;20042;-74
2022/02/26 10:56:13;;;;;;;11.70;4.88;;;;;;;1.73;74.19;100111.22;5038650;28;19928;-72
2022/02/26 10:58:40;;;;;;;15.20;5.07;;;;;;;1.79;74.44;100110.00;5055250;28;20057;-73
2022/02/26 11:01:15;;;;;;;13.65;4.75;;;;;;;1.84;73.53;100121.28;5037807;28;20052;-74
2022/02/26 11:03:42;;;;;;;12.00;4.75;;;;;;;1.85;73.66;100125.66;5044680;28;20065;-71
2022/02/26 11:06:11;;;;;;;16.17;5.38;;;;;;;1.82;73.66;100120.50;5055902;28;20099;-73
2022/02/26 11:08:38;;;;;;;17.88;5.32;;;;;;;1.73;74.04;100121.88;5042629;28;20437;-71
2022/02/26 11:11:06;;;;;;;15.95;4.57;;;;;;;1.79;73.80;100113.56;5044347;28;20091;-68
2022/02/26 11:13:33;;;;;;;15.40;5.03;;;;;;;1.92;73.46;100132.38;5029860;28;20044;-67
2022/02/26 11:16:04;;;;;;;13.05;4.95;;;;;;;1.84;73.58;100129.28;5040472;28;20147;-71
2022/02/26 11:18:38;;;;;;;17.00;5.03;;;;;;;1.71;74.00;100129.09;5015343;28;20053;-67
2022/02/26 11:21:12;;;;;;;12.60;4.30;;;;;;;1.78;73.21;100130.47;5041016;28;20048;-71
2022/02/26 11:23:38;;;;;;;19.88;4.55;;;;;;;1.89;73.82;100127.22;5048406;28;20105;-67